sensor_id;sensor_type;location;lat;lon;timestamp;P1;durP1;ratioP1;P2;durP2;ratioP2
75504;SDS011;64085;54.974;73.410;2023-09-19T00:00:20;31.17;;;18.05;;
75504;SDS011;64085;54.974;73.410;2023-09-19T00:02:51;31.00;;;17.17;;
75504;SDS011;64085;54.974;73.410;2023-09-19T00:05:17;37.85;;;18.75;;
75504;SDS011;64085;54.974;73.410;2023-09-19T00:07:42;37.33;;;17.67;;
75504;SDS011;64085;54.974;73.410;2023-09-19T00:10:08;32.50;;;18.20;;
75504;SDS011;64085;54.974;73.410;2023-09-19T00:12:34;31.02;;;17.30;;
75504;SDS011;64085;54.974;73.410;2023-09-19T00:15:00;36.22;;;18.50;;
75504;SDS011;64085;54.974;73.410;2023-09-19T00:17:26;34.78;;;18.98;;
75504;SDS011;64085;54.974;73.410;2023-09-19T00:19:51;32.33;;;19.42;;
75504;SDS011;64085;54.974;73.410;2023-09-19T00:22:17;37.97;;;17.80;;
75504;SDS011;64085;54.974;73.410;2023-09-19T00:24:45;30.33;;;16.42;;
75504;SDS011;64085;54.974;73.410;2023-09-19T00:27:11;34.15;;;16.25;;
75504;SDS011;64085;54.974;73.410;2023-09-19T00:29:36;28.50;;;16.88;;
75504;SDS011;64085;54.974;73.410;2023-09-19T00:32:01;35.25;;;17.17;;
75504;SDS011;64085;54.974;73.410;2023-09-19T00:34:30;41.15;;;19.30;;
75504;SDS011;64085;54.974;73.410;2023-09-19T00:36:56;40.90;;;19.88;;
75504;SDS011;64085;54.974;73.410;2023-09-19T00:39:21;32.38;;;17.65;;
75504;SDS011;64085;54.974;73.410;2023-09-19T00:41:47;38.63;;;17.90;;
75504;SDS011;64085;54.974;73.410;2023-09-19T00:44:12;41.22;;;20.30;;
75504;SDS011;64085;54.974;73.410;2023-09-19T00:46:38;37.85;;;19.85;;
75504;SDS011;64085;54.974;73.410;2023-09-19T00:49:04;34.30;;;19.42;;
75504;SDS011;64085;54.974;73.410;2023-09-19T00:51:32;27.10;;;15.20;;
75504;SDS011;64085;54.974;73.410;2023-09-19T00:54:00;46.25;;;21.25;;
75504;SDS011;64085;54.974;73.410;2023-09-19T00:56:26;36.35;;;19.85;;
75504;SDS011;64085;54.974;73.410;2023-09-19T00:58:52;45.08;;;21.65;;
75504;SDS011;64085;54.974;73.410;2023-09-19T01:01:17;58.53;;;26.77;;
75504;SDS011;64085;54.974;73.410;2023-09-19T01:03:44;60.33;;;28.90;;
75504;SDS011;64085;54.974;73.410;2023-09-19T01:06:09;60.30;;;26.77;;
75504;SDS011;64085;54.974;73.410;2023-09-19T01:08:35;60.58;;;27.65;;
75504;SDS011;64085;54.974;73.410;2023-09-19T01:11:09;64.35;;;25.42;;
75504;SDS011;64085;54.974;73.410;2023-09-19T01:29:39;20.48;;;11.82;;
75504;SDS011;64085;54.974;73.410;2023-09-19T01:32:08;17.50;;;10.57;;
75504;SDS011;64085;54.974;73.410;2023-09-19T01:34:44;22.55;;;9.48;;
75504;SDS011;64085;54.974;73.410;2023-09-19T01:37:12;16.48;;;9.10;;
75504;SDS011;64085;54.974;73.410;2023-09-19T01:39:41;21.25;;;11.07;;
75504;SDS011;64085;54.974;73.410;2023-09-19T01:42:50;15.80;;;10.55;;
75504;SDS011;64085;54.974;73.410;2023-09-19T01:47:56;17.20;;;10.18;;
75504;SDS011;64085;54.974;73.410;2023-09-19T01:52:49;30.33;;;15.40;;
75504;SDS011;64085;54.974;73.410;2023-09-19T01:55:19;27.10;;;13.70;;
75504;SDS011;64085;54.974;73.410;2023-09-19T02:00:42;24.77;;;13.70;;
75504;SDS011;64085;54.974;73.410;2023-09-19T02:03:08;26.05;;;13.38;;
75504;SDS011;64085;54.974;73.410;2023-09-19T02:05:34;29.23;;;13.65;;
75504;SDS011;64085;54.974;73.410;2023-09-19T02:07:59;29.45;;;15.00;;
75504;SDS011;64085;54.974;73.410;2023-09-19T02:10:25;28.52;;;14.20;;
75504;SDS011;64085;54.974;73.410;2023-09-19T02:12:51;31.25;;;14.98;;
75504;SDS011;64085;54.974;73.410;2023-09-19T02:15:16;31.17;;;14.70;;
75504;SDS011;64085;54.974;73.410;2023-09-19T02:17:45;39.25;;;16.20;;
75504;SDS011;64085;54.974;73.410;2023-09-19T02:20:11;26.65;;;16.35;;
75504;SDS011;64085;54.974;73.410;2023-09-19T02:22:40;29.92;;;14.98;;
75504;SDS011;64085;54.974;73.410;2023-09-19T02:25:05;37.08;;;15.85;;
75504;SDS011;64085;54.974;73.410;2023-09-19T02:27:32;34.10;;;17.02;;
75504;SDS011;64085;54.974;73.410;2023-09-19T02:29:57;33.83;;;15.40;;
75504;SDS011;64085;54.974;73.410;2023-09-19T02:32:23;36.60;;;16.67;;
75504;SDS011;64085;54.974;73.410;2023-09-19T02:34:48;34.00;;;17.27;;
75504;SDS011;64085;54.974;73.410;2023-09-19T02:37:17;25.58;;;16.75;;
75504;SDS011;64085;54.974;73.410;2023-09-19T02:39:44;32.15;;;17.95;;
75504;SDS011;64085;54.974;73.410;2023-09-19T02:42:09;25.58;;;16.38;;
75504;SDS011;64085;54.974;73.410;2023-09-19T02:44:34;31.15;;;15.65;;
75504;SDS011;64085;54.974;73.410;2023-09-19T02:47:00;35.88;;;16.17;;
75504;SDS011;64085;54.974;73.410;2023-09-19T02:49:26;28.88;;;15.27;;
75504;SDS011;64085;54.974;73.410;2023-09-19T02:51:51;25.95;;;15.00;;
75504;SDS011;64085;54.974;73.410;2023-09-19T02:54:17;19.92;;;13.52;;
75504;SDS011;64085;54.974;73.410;2023-09-19T02:56:45;24.75;;;13.77;;
75504;SDS011;64085;54.974;73.410;2023-09-19T02:59:12;23.92;;;15.80;;
75504;SDS011;64085;54.974;73.410;2023-09-19T03:01:38;24.10;;;15.10;;
75504;SDS011;64085;54.974;73.410;2023-09-19T03:04:04;31.23;;;15.52;;
75504;SDS011;64085;54.974;73.410;2023-09-19T03:08:57;24.52;;;15.57;;
75504;SDS011;64085;54.974;73.410;2023-09-19T03:11:25;29.45;;;15.35;;
75504;SDS011;64085;54.974;73.410;2023-09-19T03:13:51;27.58;;;14.75;;
75504;SDS011;64085;54.974;73.410;2023-09-19T03:16:17;27.52;;;15.57;;
75504;SDS011;64085;54.974;73.410;2023-09-19T03:18:43;37.75;;;18.15;;
75504;SDS011;64085;54.974;73.410;2023-09-19T03:21:10;27.70;;;18.33;;
75504;SDS011;64085;54.974;73.410;2023-09-19T03:23:35;36.83;;;20.42;;
75504;SDS011;64085;54.974;73.410;2023-09-19T03:26:01;37.75;;;21.08;;
75504;SDS011;64085;54.974;73.410;2023-09-19T03:28:26;37.13;;;20.70;;
75504;SDS011;64085;54.974;73.410;2023-09-19T03:30:59;38.45;;;21.88;;
75504;SDS011;64085;54.974;73.410;2023-09-19T03:33:25;32.88;;;21.65;;
75504;SDS011;64085;54.974;73.410;2023-09-19T03:35:54;40.28;;;22.05;;
75504;SDS011;64085;54.974;73.410;2023-09-19T03:38:19;41.88;;;23.13;;
75504;SDS011;64085;54.974;73.410;2023-09-19T03:40:45;42.97;;;23.00;;
75504;SDS011;64085;54.974;73.410;2023-09-19T03:43:10;37.78;;;22.45;;
75504;SDS011;64085;54.974;73.410;2023-09-19T03:45:36;37.20;;;19.67;;
75504;SDS011;64085;54.974;73.410;2023-09-19T03:48:07;39.47;;;21.17;;
75504;SDS011;64085;54.974;73.410;2023-09-19T03:50:33;42.72;;;21.85;;
75504;SDS011;64085;54.974;73.410;2023-09-19T03:52:58;50.97;;;25.80;;
75504;SDS011;64085;54.974;73.410;2023-09-19T03:55:24;46.78;;;25.35;;
75504;SDS011;64085;54.974;73.410;2023-09-19T03:57:49;47.45;;;26.35;;
75504;SDS011;64085;54.974;73.410;2023-09-19T04:00:15;51.90;;;27.45;;
75504;SDS011;64085;54.974;73.410;2023-09-19T04:02:43;58.70;;;26.38;;
75504;SDS011;64085;54.974;73.410;2023-09-19T04:05:08;57.60;;;27.08;;
75504;SDS011;64085;54.974;73.410;2023-09-19T04:07:35;56.22;;;24.35;;
75504;SDS011;64085;54.974;73.410;2023-09-19T04:10:01;43.80;;;22.00;;
75504;SDS011;64085;54.974;73.410;2023-09-19T04:12:26;37.75;;;19.52;;
75504;SDS011;64085;54.974;73.410;2023-09-19T04:14:52;32.65;;;19.05;;
75504;SDS011;64085;54.974;73.410;2023-09-19T04:17:17;39.22;;;15.82;;
75504;SDS011;64085;54.974;73.410;2023-09-19T04:19:43;34.45;;;15.55;;
75504;SDS011;64085;54.974;73.410;2023-09-19T04:22:10;32.63;;;14.30;;
75504;SDS011;64085;54.974;73.410;2023-09-19T04:24:36;26.20;;;13.63;;
75504;SDS011;64085;54.974;73.410;2023-09-19T04:27:03;36.22;;;14.35;;
75504;SDS011;64085;54.974;73.410;2023-09-19T04:29:28;34.92;;;14.35;;
75504;SDS011;64085;54.974;73.410;2023-09-19T04:31:55;36.00;;;13.80;;
75504;SDS011;64085;54.974;73.410;2023-09-19T04:34:21;25.48;;;12.90;;
75504;SDS011;64085;54.974;73.410;2023-09-19T04:36:47;21.73;;;10.63;;
75504;SDS011;64085;54.974;73.410;2023-09-19T04:39:12;30.70;;;10.20;;
75504;SDS011;64085;54.974;73.410;2023-09-19T04:41:38;27.25;;;10.98;;
75504;SDS011;64085;54.974;73.410;2023-09-19T04:44:06;14.80;;;9.02;;
75504;SDS011;64085;54.974;73.410;2023-09-19T04:46:35;23.30;;;11.13;;
75504;SDS011;64085;54.974;73.410;2023-09-19T04:49:00;18.38;;;10.32;;
75504;SDS011;64085;54.974;73.410;2023-09-19T04:51:26;26.55;;;10.55;;
75504;SDS011;64085;54.974;73.410;2023-09-19T04:53:54;14.88;;;8.13;;
75504;SDS011;64085;54.974;73.410;2023-09-19T04:56:19;18.73;;;7.80;;
75504;SDS011;64085;54.974;73.410;2023-09-19T04:58:46;22.13;;;7.93;;
75504;SDS011;64085;54.974;73.410;2023-09-19T05:01:11;16.70;;;7.70;;
75504;SDS011;64085;54.974;73.410;2023-09-19T05:03:39;15.05;;;6.63;;
75504;SDS011;64085;54.974;73.410;2023-09-19T05:06:04;13.80;;;7.03;;
75504;SDS011;64085;54.974;73.410;2023-09-19T05:08:30;18.60;;;7.65;;
75504;SDS011;64085;54.974;73.410;2023-09-19T05:10:56;12.65;;;7.28;;
75504;SDS011;64085;54.974;73.410;2023-09-19T05:13:21;13.48;;;7.32;;
75504;SDS011;64085;54.974;73.410;2023-09-19T05:15:48;17.88;;;8.80;;
75504;SDS011;64085;54.974;73.410;2023-09-19T05:18:15;14.50;;;7.15;;
75504;SDS011;64085;54.974;73.410;2023-09-19T05:20:40;13.65;;;6.53;;
75504;SDS011;64085;54.974;73.410;2023-09-19T05:23:07;11.95;;;7.32;;
75504;SDS011;64085;54.974;73.410;2023-09-19T05:25:39;16.83;;;6.00;;
75504;SDS011;64085;54.974;73.410;2023-09-19T05:28:05;11.13;;;5.85;;
75504;SDS011;64085;54.974;73.410;2023-09-19T05:30:33;14.60;;;7.15;;
75504;SDS011;64085;54.974;73.410;2023-09-19T05:33:01;10.32;;;5.85;;
75504;SDS011;64085;54.974;73.410;2023-09-19T05:35:27;17.65;;;6.43;;
75504;SDS011;64085;54.974;73.410;2023-09-19T05:37:53;13.30;;;6.03;;
75504;SDS011;64085;54.974;73.410;2023-09-19T05:40:24;14.38;;;5.07;;
75504;SDS011;64085;54.974;73.410;2023-09-19T05:42:50;12.25;;;5.03;;
75504;SDS011;64085;54.974;73.410;2023-09-19T05:45:15;9.68;;;4.57;;
75504;SDS011;64085;54.974;73.410;2023-09-19T05:47:47;8.02;;;4.38;;
75504;SDS011;64085;54.974;73.410;2023-09-19T05:50:13;11.98;;;4.50;;
75504;SDS011;64085;54.974;73.410;2023-09-19T05:52:39;12.82;;;4.32;;
75504;SDS011;64085;54.974;73.410;2023-09-19T05:55:06;13.45;;;4.85;;
75504;SDS011;64085;54.974;73.410;2023-09-19T05:57:35;21.63;;;5.28;;
75504;SDS011;64085;54.974;73.410;2023-09-19T06:00:00;9.57;;;5.03;;
75504;SDS011;64085;54.974;73.410;2023-09-19T06:02:26;14.55;;;4.90;;
75504;SDS011;64085;54.974;73.410;2023-09-19T06:04:55;12.05;;;4.18;;
75504;SDS011;64085;54.974;73.410;2023-09-19T06:07:23;8.75;;;3.70;;
75504;SDS011;64085;54.974;73.410;2023-09-19T06:09:51;10.10;;;4.18;;
75504;SDS011;64085;54.974;73.410;2023-09-19T06:12:18;12.07;;;4.90;;
75504;SDS011;64085;54.974;73.410;2023-09-19T06:14:44;7.07;;;4.53;;
75504;SDS011;64085;54.974;73.410;2023-09-19T06:17:09;7.50;;;4.30;;
75504;SDS011;64085;54.974;73.410;2023-09-19T06:19:35;13.80;;;5.25;;
75504;SDS011;64085;54.974;73.410;2023-09-19T06:22:01;11.20;;;4.80;;
75504;SDS011;64085;54.974;73.410;2023-09-19T06:24:26;10.27;;;4.30;;
75504;SDS011;64085;54.974;73.410;2023-09-19T06:26:52;6.80;;;4.03;;
75504;SDS011;64085;54.974;73.410;2023-09-19T06:29:18;10.70;;;4.13;;
75504;SDS011;64085;54.974;73.410;2023-09-19T06:31:43;8.45;;;4.43;;
75504;SDS011;64085;54.974;73.410;2023-09-19T06:34:10;6.75;;;4.20;;
75504;SDS011;64085;54.974;73.410;2023-09-19T06:36:35;10.68;;;5.30;;
75504;SDS011;64085;54.974;73.410;2023-09-19T06:39:00;12.52;;;5.00;;
75504;SDS011;64085;54.974;73.410;2023-09-19T06:41:26;9.50;;;4.63;;
75504;SDS011;64085;54.974;73.410;2023-09-19T06:43:51;12.43;;;4.70;;
75504;SDS011;64085;54.974;73.410;2023-09-19T06:46:20;13.02;;;4.25;;
75504;SDS011;64085;54.974;73.410;2023-09-19T06:48:45;13.63;;;5.13;;
75504;SDS011;64085;54.974;73.410;2023-09-19T06:51:12;13.48;;;4.80;;
75504;SDS011;64085;54.974;73.410;2023-09-19T06:53:40;8.75;;;5.30;;
75504;SDS011;64085;54.974;73.410;2023-09-19T06:56:06;14.23;;;5.63;;
75504;SDS011;64085;54.974;73.410;2023-09-19T06:58:31;13.05;;;6.07;;
75504;SDS011;64085;54.974;73.410;2023-09-19T07:00:57;18.40;;;5.90;;
75504;SDS011;64085;54.974;73.410;2023-09-19T07:03:22;11.60;;;5.35;;
75504;SDS011;64085;54.974;73.410;2023-09-19T07:08:16;9.40;;;4.23;;
75504;SDS011;64085;54.974;73.410;2023-09-19T07:10:42;12.82;;;5.72;;
75504;SDS011;64085;54.974;73.410;2023-09-19T07:13:13;11.48;;;5.68;;
75504;SDS011;64085;54.974;73.410;2023-09-19T07:15:41;9.55;;;5.03;;
75504;SDS011;64085;54.974;73.410;2023-09-19T07:18:12;13.27;;;4.50;;
75504;SDS011;64085;54.974;73.410;2023-09-19T07:20:37;11.38;;;5.50;;
75504;SDS011;64085;54.974;73.410;2023-09-19T07:23:03;10.32;;;5.18;;
75504;SDS011;64085;54.974;73.410;2023-09-19T07:25:29;10.15;;;4.68;;
75504;SDS011;64085;54.974;73.410;2023-09-19T07:27:55;7.97;;;4.75;;
75504;SDS011;64085;54.974;73.410;2023-09-19T07:30:20;6.32;;;4.50;;
75504;SDS011;64085;54.974;73.410;2023-09-19T07:32:46;11.15;;;5.15;;
75504;SDS011;64085;54.974;73.410;2023-09-19T07:35:11;10.05;;;4.47;;
75504;SDS011;64085;54.974;73.410;2023-09-19T07:37:37;6.35;;;4.32;;
75504;SDS011;64085;54.974;73.410;2023-09-19T07:40:03;11.23;;;4.22;;
75504;SDS011;64085;54.974;73.410;2023-09-19T07:42:35;8.75;;;4.30;;
75504;SDS011;64085;54.974;73.410;2023-09-19T07:45:02;6.85;;;4.50;;
75504;SDS011;64085;54.974;73.410;2023-09-19T07:47:28;4.80;;;3.75;;
75504;SDS011;64085;54.974;73.410;2023-09-19T07:49:55;7.28;;;3.75;;
75504;SDS011;64085;54.974;73.410;2023-09-19T07:52:20;5.07;;;4.30;;
75504;SDS011;64085;54.974;73.410;2023-09-19T07:54:47;6.22;;;3.97;;
75504;SDS011;64085;54.974;73.410;2023-09-19T07:57:14;5.97;;;4.18;;
75504;SDS011;64085;54.974;73.410;2023-09-19T07:59:40;5.88;;;3.88;;
75504;SDS011;64085;54.974;73.410;2023-09-19T08:02:07;6.93;;;4.15;;
75504;SDS011;64085;54.974;73.410;2023-09-19T08:04:43;9.20;;;4.00;;
75504;SDS011;64085;54.974;73.410;2023-09-19T08:07:10;6.28;;;4.10;;
75504;SDS011;64085;54.974;73.410;2023-09-19T08:09:36;7.53;;;4.65;;
75504;SDS011;64085;54.974;73.410;2023-09-19T08:12:04;7.68;;;3.78;;
75504;SDS011;64085;54.974;73.410;2023-09-19T08:14:29;5.60;;;3.63;;
75504;SDS011;64085;54.974;73.410;2023-09-19T08:16:58;4.72;;;2.97;;
75504;SDS011;64085;54.974;73.410;2023-09-19T08:21:56;5.35;;;3.80;;
75504;SDS011;64085;54.974;73.410;2023-09-19T08:24:24;8.07;;;3.75;;
75504;SDS011;64085;54.974;73.410;2023-09-19T08:26:50;4.78;;;2.67;;
75504;SDS011;64085;54.974;73.410;2023-09-19T08:29:16;6.63;;;3.95;;
75504;SDS011;64085;54.974;73.410;2023-09-19T08:31:42;6.80;;;3.72;;
75504;SDS011;64085;54.974;73.410;2023-09-19T08:34:08;7.63;;;3.38;;
75504;SDS011;64085;54.974;73.410;2023-09-19T08:36:34;5.72;;;2.97;;
75504;SDS011;64085;54.974;73.410;2023-09-19T08:39:00;5.60;;;3.25;;
75504;SDS011;64085;54.974;73.410;2023-09-19T08:41:25;5.38;;;3.38;;
75504;SDS011;64085;54.974;73.410;2023-09-19T08:43:51;7.32;;;3.67;;
75504;SDS011;64085;54.974;73.410;2023-09-19T08:46:18;6.82;;;3.30;;
75504;SDS011;64085;54.974;73.410;2023-09-19T08:49:47;3.95;;;2.88;;
75504;SDS011;64085;54.974;73.410;2023-09-19T08:51:41;5.97;;;3.53;;
75504;SDS011;64085;54.974;73.410;2023-09-19T08:56:45;4.78;;;3.38;;
75504;SDS011;64085;54.974;73.410;2023-09-19T08:59:12;5.28;;;3.13;;
75504;SDS011;64085;54.974;73.410;2023-09-19T09:01:38;5.40;;;2.80;;
75504;SDS011;64085;54.974;73.410;2023-09-19T09:04:08;4.55;;;3.08;;
75504;SDS011;64085;54.974;73.410;2023-09-19T09:06:34;7.55;;;3.08;;
75504;SDS011;64085;54.974;73.410;2023-09-19T09:08:59;7.55;;;2.80;;
75504;SDS011;64085;54.974;73.410;2023-09-19T09:11:27;7.47;;;3.53;;
75504;SDS011;64085;54.974;73.410;2023-09-19T09:13:53;7.03;;;3.60;;
75504;SDS011;64085;54.974;73.410;2023-09-19T09:16:18;4.65;;;3.25;;
75504;SDS011;64085;54.974;73.410;2023-09-19T09:18:45;9.35;;;3.10;;
75504;SDS011;64085;54.974;73.410;2023-09-19T09:21:11;6.75;;;3.05;;
75504;SDS011;64085;54.974;73.410;2023-09-19T09:23:36;4.72;;;2.78;;
75504;SDS011;64085;54.974;73.410;2023-09-19T09:26:02;5.60;;;3.00;;
75504;SDS011;64085;54.974;73.410;2023-09-19T09:28:29;5.90;;;3.38;;
75504;SDS011;64085;54.974;73.410;2023-09-19T09:30:59;5.35;;;2.92;;
75504;SDS011;64085;54.974;73.410;2023-09-19T09:33:25;8.50;;;3.80;;
75504;SDS011;64085;54.974;73.410;2023-09-19T09:35:56;3.85;;;2.80;;
75504;SDS011;64085;54.974;73.410;2023-09-19T09:38:22;5.30;;;3.00;;
75504;SDS011;64085;54.974;73.410;2023-09-19T09:40:53;10.13;;;3.60;;
75504;SDS011;64085;54.974;73.410;2023-09-19T09:43:33;6.90;;;3.35;;
75504;SDS011;64085;54.974;73.410;2023-09-19T09:46:14;6.07;;;3.00;;
75504;SDS011;64085;54.974;73.410;2023-09-19T09:48:58;5.47;;;3.17;;
75504;SDS011;64085;54.974;73.410;2023-09-19T09:51:50;3.47;;;2.88;;
75504;SDS011;64085;54.974;73.410;2023-09-19T09:54:25;4.55;;;3.15;;
75504;SDS011;64085;54.974;73.410;2023-09-19T09:56:59;6.50;;;4.38;;
75504;SDS011;64085;54.974;73.410;2023-09-19T09:59:45;7.28;;;4.30;;
75504;SDS011;64085;54.974;73.410;2023-09-19T10:02:43;6.50;;;4.10;;
75504;SDS011;64085;54.974;73.410;2023-09-19T10:05:20;8.52;;;4.18;;
75504;SDS011;64085;54.974;73.410;2023-09-19T10:07:49;8.75;;;4.25;;
75504;SDS011;64085;54.974;73.410;2023-09-19T10:13:12;7.07;;;4.78;;
75504;SDS011;64085;54.974;73.410;2023-09-19T10:15:41;8.57;;;4.55;;
75504;SDS011;64085;54.974;73.410;2023-09-19T10:18:11;9.23;;;4.53;;
75504;SDS011;64085;54.974;73.410;2023-09-19T10:20:44;7.60;;;4.63;;
75504;SDS011;64085;54.974;73.410;2023-09-19T10:23:11;8.25;;;4.53;;
75504;SDS011;64085;54.974;73.410;2023-09-19T10:25:40;10.63;;;4.35;;
75504;SDS011;64085;54.974;73.410;2023-09-19T10:28:13;11.10;;;4.85;;
75504;SDS011;64085;54.974;73.410;2023-09-19T10:30:49;9.98;;;4.80;;
75504;SDS011;64085;54.974;73.410;2023-09-19T10:33:24;9.57;;;4.90;;
75504;SDS011;64085;54.974;73.410;2023-09-19T10:35:56;11.18;;;4.47;;
75504;SDS011;64085;54.974;73.410;2023-09-19T10:38:24;10.75;;;4.32;;
75504;SDS011;64085;54.974;73.410;2023-09-19T10:40:51;11.60;;;5.20;;
75504;SDS011;64085;54.974;73.410;2023-09-19T10:43:18;9.38;;;4.90;;
75504;SDS011;64085;54.974;73.410;2023-09-19T10:45:44;7.00;;;4.38;;
75504;SDS011;64085;54.974;73.410;2023-09-19T10:48:12;10.35;;;4.80;;
75504;SDS011;64085;54.974;73.410;2023-09-19T10:53:10;9.43;;;4.63;;
75504;SDS011;64085;54.974;73.410;2023-09-19T10:55:37;17.23;;;6.45;;
75504;SDS011;64085;54.974;73.410;2023-09-19T10:58:05;10.38;;;5.32;;
75504;SDS011;64085;54.974;73.410;2023-09-19T11:03:18;8.30;;;4.57;;
75504;SDS011;64085;54.974;73.410;2023-09-19T11:06:07;10.25;;;5.55;;
75504;SDS011;64085;54.974;73.410;2023-09-19T11:22:25;8.38;;;3.85;;
75504;SDS011;64085;54.974;73.410;2023-09-19T11:24:51;9.75;;;4.57;;
75504;SDS011;64085;54.974;73.410;2023-09-19T11:27:17;13.05;;;4.93;;
75504;SDS011;64085;54.974;73.410;2023-09-19T11:29:44;7.57;;;4.60;;
75504;SDS011;64085;54.974;73.410;2023-09-19T11:32:10;13.50;;;4.80;;
75504;SDS011;64085;54.974;73.410;2023-09-19T11:34:37;8.23;;;3.72;;
75504;SDS011;64085;54.974;73.410;2023-09-19T11:39:32;9.25;;;4.10;;
75504;SDS011;64085;54.974;73.410;2023-09-19T11:41:58;7.43;;;2.67;;
75504;SDS011;64085;54.974;73.410;2023-09-19T11:46:55;10.57;;;4.00;;
75504;SDS011;64085;54.974;73.410;2023-09-19T11:49:32;8.68;;;4.63;;
75504;SDS011;64085;54.974;73.410;2023-09-19T11:52:02;11.95;;;4.93;;
75504;SDS011;64085;54.974;73.410;2023-09-19T11:54:32;6.32;;;3.95;;
75504;SDS011;64085;54.974;73.410;2023-09-19T11:56:58;6.55;;;3.75;;
75504;SDS011;64085;54.974;73.410;2023-09-19T11:59:30;7.75;;;4.00;;
75504;SDS011;64085;54.974;73.410;2023-09-19T12:01:56;8.32;;;4.65;;
75504;SDS011;64085;54.974;73.410;2023-09-19T12:04:38;7.03;;;4.13;;
75504;SDS011;64085;54.974;73.410;2023-09-19T12:07:07;9.52;;;4.78;;
75504;SDS011;64085;54.974;73.410;2023-09-19T12:10:03;10.07;;;4.10;;
75504;SDS011;64085;54.974;73.410;2023-09-19T12:12:29;16.08;;;4.47;;
75504;SDS011;64085;54.974;73.410;2023-09-19T12:14:56;11.70;;;4.20;;
75504;SDS011;64085;54.974;73.410;2023-09-19T12:17:39;7.10;;;4.55;;
75504;SDS011;64085;54.974;73.410;2023-09-19T12:20:09;9.68;;;4.97;;
75504;SDS011;64085;54.974;73.410;2023-09-19T12:22:45;8.00;;;3.88;;
75504;SDS011;64085;54.974;73.410;2023-09-19T12:25:41;10.48;;;5.63;;
75504;SDS011;64085;54.974;73.410;2023-09-19T12:28:06;11.07;;;4.40;;
75504;SDS011;64085;54.974;73.410;2023-09-19T12:30:34;7.45;;;4.47;;
75504;SDS011;64085;54.974;73.410;2023-09-19T12:33:02;6.97;;;3.90;;
75504;SDS011;64085;54.974;73.410;2023-09-19T12:35:32;8.00;;;4.00;;
75504;SDS011;64085;54.974;73.410;2023-09-19T12:38:00;6.90;;;3.97;;
75504;SDS011;64085;54.974;73.410;2023-09-19T12:40:26;7.20;;;4.28;;
75504;SDS011;64085;54.974;73.410;2023-09-19T12:42:53;10.65;;;4.68;;
75504;SDS011;64085;54.974;73.410;2023-09-19T12:45:28;10.05;;;4.47;;
75504;SDS011;64085;54.974;73.410;2023-09-19T12:50:58;14.20;;;5.28;;
75504;SDS011;64085;54.974;73.410;2023-09-19T12:53:26;15.68;;;7.32;;
75504;SDS011;64085;54.974;73.410;2023-09-19T12:56:00;15.38;;;6.80;;
75504;SDS011;64085;54.974;73.410;2023-09-19T12:58:26;16.20;;;6.07;;
75504;SDS011;64085;54.974;73.410;2023-09-19T13:00:52;9.32;;;4.95;;
75504;SDS011;64085;54.974;73.410;2023-09-19T13:08:27;11.65;;;5.47;;
75504;SDS011;64085;54.974;73.410;2023-09-19T13:13:25;8.38;;;4.90;;
75504;SDS011;64085;54.974;73.410;2023-09-19T13:15:53;7.50;;;4.78;;
75504;SDS011;64085;54.974;73.410;2023-09-19T13:18:18;18.23;;;7.82;;
75504;SDS011;64085;54.974;73.410;2023-09-19T13:21:05;19.33;;;10.07;;
75504;SDS011;64085;54.974;73.410;2023-09-19T13:23:30;14.38;;;9.23;;
75504;SDS011;64085;54.974;73.410;2023-09-19T13:25:56;15.20;;;7.10;;
75504;SDS011;64085;54.974;73.410;2023-09-19T13:28:21;15.88;;;7.10;;
75504;SDS011;64085;54.974;73.410;2023-09-19T13:30:47;14.88;;;8.73;;
75504;SDS011;64085;54.974;73.410;2023-09-19T13:33:13;13.70;;;7.13;;
75504;SDS011;64085;54.974;73.410;2023-09-19T13:35:46;20.45;;;8.00;;
75504;SDS011;64085;54.974;73.410;2023-09-19T13:38:13;19.13;;;8.27;;
75504;SDS011;64085;54.974;73.410;2023-09-19T13:40:38;22.58;;;11.65;;
75504;SDS011;64085;54.974;73.410;2023-09-19T13:43:06;15.77;;;9.35;;
75504;SDS011;64085;54.974;73.410;2023-09-19T13:45:32;20.50;;;10.50;;
75504;SDS011;64085;54.974;73.410;2023-09-19T13:47:57;18.70;;;9.90;;
75504;SDS011;64085;54.974;73.410;2023-09-19T13:50:26;19.10;;;8.77;;
75504;SDS011;64085;54.974;73.410;2023-09-19T13:52:54;19.17;;;10.93;;
75504;SDS011;64085;54.974;73.410;2023-09-19T13:55:19;21.08;;;11.18;;
75504;SDS011;64085;54.974;73.410;2023-09-19T13:57:46;18.08;;;8.27;;
75504;SDS011;64085;54.974;73.410;2023-09-19T14:00:12;19.80;;;8.73;;
75504;SDS011;64085;54.974;73.410;2023-09-19T14:02:41;17.65;;;9.10;;
75504;SDS011;64085;54.974;73.410;2023-09-19T14:05:08;20.20;;;7.50;;
75504;SDS011;64085;54.974;73.410;2023-09-19T14:07:53;12.73;;;7.50;;
75504;SDS011;64085;54.974;73.410;2023-09-19T14:10:19;13.20;;;8.07;;
75504;SDS011;64085;54.974;73.410;2023-09-19T14:12:45;17.88;;;9.23;;
75504;SDS011;64085;54.974;73.410;2023-09-19T14:15:11;11.05;;;8.10;;
75504;SDS011;64085;54.974;73.410;2023-09-19T14:17:40;19.60;;;8.30;;
75504;SDS011;64085;54.974;73.410;2023-09-19T14:20:10;20.17;;;8.38;;
75504;SDS011;64085;54.974;73.410;2023-09-19T14:22:36;20.17;;;9.68;;
75504;SDS011;64085;54.974;73.410;2023-09-19T14:25:02;19.77;;;9.05;;
75504;SDS011;64085;54.974;73.410;2023-09-19T14:27:29;24.15;;;9.85;;
75504;SDS011;64085;54.974;73.410;2023-09-19T14:29:54;15.75;;;8.13;;
75504;SDS011;64085;54.974;73.410;2023-09-19T14:32:20;17.30;;;9.52;;
75504;SDS011;64085;54.974;73.410;2023-09-19T14:34:46;22.70;;;10.32;;
75504;SDS011;64085;54.974;73.410;2023-09-19T14:37:11;36.50;;;16.95;;
75504;SDS011;64085;54.974;73.410;2023-09-19T14:39:37;36.00;;;14.63;;
75504;SDS011;64085;54.974;73.410;2023-09-19T14:42:04;29.40;;;15.70;;
75504;SDS011;64085;54.974;73.410;2023-09-19T14:44:30;22.45;;;11.85;;
75504;SDS011;64085;54.974;73.410;2023-09-19T14:46:55;31.33;;;17.85;;
75504;SDS011;64085;54.974;73.410;2023-09-19T14:49:21;28.00;;;13.60;;
75504;SDS011;64085;54.974;73.410;2023-09-19T14:51:46;24.80;;;11.98;;
75504;SDS011;64085;54.974;73.410;2023-09-19T14:54:14;21.50;;;10.93;;
75504;SDS011;64085;54.974;73.410;2023-09-19T14:59:09;15.95;;;7.90;;
75504;SDS011;64085;54.974;73.410;2023-09-19T15:01:36;21.52;;;9.77;;
75504;SDS011;64085;54.974;73.410;2023-09-19T15:04:01;20.30;;;9.70;;
75504;SDS011;64085;54.974;73.410;2023-09-19T15:06:27;14.88;;;8.63;;
75504;SDS011;64085;54.974;73.410;2023-09-19T15:08:52;20.63;;;8.50;;
75504;SDS011;64085;54.974;73.410;2023-09-19T15:11:18;19.15;;;8.35;;
75504;SDS011;64085;54.974;73.410;2023-09-19T15:13:44;14.48;;;7.25;;
75504;SDS011;64085;54.974;73.410;2023-09-19T15:16:10;17.88;;;9.48;;
75504;SDS011;64085;54.974;73.410;2023-09-19T15:18:36;16.88;;;8.10;;
75504;SDS011;64085;54.974;73.410;2023-09-19T15:21:08;15.82;;;11.13;;
75504;SDS011;64085;54.974;73.410;2023-09-19T15:23:34;20.30;;;11.32;;
75504;SDS011;64085;54.974;73.410;2023-09-19T15:26:01;22.83;;;9.68;;
75504;SDS011;64085;54.974;73.410;2023-09-19T15:28:27;18.90;;;10.88;;
75504;SDS011;64085;54.974;73.410;2023-09-19T15:31:15;20.65;;;12.63;;
75504;SDS011;64085;54.974;73.410;2023-09-19T15:33:40;21.67;;;10.77;;
75504;SDS011;64085;54.974;73.410;2023-09-19T15:36:06;24.52;;;11.45;;
75504;SDS011;64085;54.974;73.410;2023-09-19T15:39:18;25.95;;;12.32;;